首页
METAR-TAF:

METAR-TAF

机场 :

巴斯蒂亚, 法国

纬度: 42-33N, 经度: 009-29E, 海拔: 8米

当前天气观测

该预报发布于22分钟前的01:00 UTC
风速7节,风向西南
温度 15°C
湿度 72%
气压 1020 hPa
能见度10公里或以上
1500米以下无云,无积雨云

METAR: LFKB 170100Z AUTO 23007KT CAVOK 15/10 Q1020 NOSIG

时间: 03:22 (01:22 UTC)

预报

该预报发布于5小时和22分钟前的20:00 UTC
预报有效从16日的 21点(UTC)到 17日的 21点(UTC)
风速4节,风向西南
能见度10公里或以上
少量云层高于3000英尺
短暂存在
从 17日的 10点(UTC)到 17日的 15点(UTC)
风速10节,风向东南

TAF: LFKB 162000Z 1621/1721 23004KT 9999 FEW030 TX22/1711Z TN13/1703Z TEMPO 1710/1715 14010KT

超过4000个机场的气象观测和天气预报(METAR&TAF报告)。

可查询的气象台以黄色和红色小点在地图上表示。

将鼠标移到小点上方,可查看气象台名称。

然后点击查看天气观测和预报。

如需切换地图:点击带黑十字的绿色按钮放大地图;点击带横线的绿色按钮缩小地图;或者点击绿色箭头查看邻近地区的地图。


METAR-TAF: